createdAt,value
2019-04-01T00:01:30.234Z,24.37
2019-04-01T00:04:43.939Z,23.30
2019-04-01T00:07:57.398Z,22.67
2019-04-01T00:11:10.966Z,22.47
2019-04-01T00:14:24.777Z,23.13
2019-04-01T00:17:38.251Z,25.97
2019-04-01T00:20:51.728Z,20.03
2019-04-01T00:24:05.288Z,23.90
2019-04-01T00:27:18.767Z,22.43
2019-04-01T00:30:32.752Z,23.40
2019-04-01T00:33:46.218Z,23.43
2019-04-01T00:36:59.701Z,22.47
2019-04-01T00:40:13.274Z,25.20
2019-04-01T00:43:46.700Z,19.27
2019-04-01T00:47:00.398Z,20.73
2019-04-01T00:50:13.888Z,18.97
2019-04-01T00:53:27.344Z,21.33
2019-04-01T00:56:41.202Z,24.67
2019-04-01T00:59:54.958Z,23.97
2019-04-01T01:03:08.685Z,21.20
2019-04-01T01:06:22.275Z,24.33
2019-04-01T01:09:36.047Z,19.60
2019-04-01T01:12:49.887Z,23.00
2019-04-01T01:16:03.348Z,22.83
2019-04-01T01:19:17.247Z,22.73
2019-04-01T01:22:31.115Z,24.07
2019-04-01T01:25:44.699Z,25.67
2019-04-01T01:28:58.180Z,26.70
2019-04-01T01:32:11.780Z,26.53
2019-04-01T01:35:25.269Z,28.20
2019-04-01T01:38:39.016Z,26.43
2019-04-01T01:41:52.499Z,25.13
2019-04-01T01:45:06.192Z,23.63
2019-04-01T01:48:19.968Z,27.97
2019-04-01T01:51:33.475Z,29.17
2019-04-01T01:54:46.969Z,27.27
2019-04-01T01:58:00.835Z,27.13
2019-04-01T02:01:14.321Z,29.00
2019-04-01T02:04:27.889Z,29.53
2019-04-01T02:07:41.632Z,28.70
2019-04-01T02:10:55.616Z,26.00
2019-04-01T02:14:09.368Z,31.50
2019-04-01T02:17:23.434Z,35.47
2019-04-01T02:20:36.904Z,34.40
2019-04-01T02:23:50.499Z,33.33
2019-04-01T02:27:04.461Z,25.70
2019-04-01T02:30:18.215Z,29.70
2019-04-01T02:33:31.706Z,32.37
2019-04-01T02:36:45.201Z,30.37
2019-04-01T02:39:59.028Z,30.87
2019-04-01T02:43:12.619Z,29.50
2019-04-01T02:46:26.199Z,31.53
2019-04-01T02:49:39.699Z,31.23
2019-04-01T02:52:53.308Z,26.90
2019-04-01T02:56:06.775Z,29.33
2019-04-01T02:59:20.269Z,34.97
2019-04-01T03:02:33.750Z,30.23
2019-04-01T03:05:47.258Z,30.90
2019-04-01T03:09:01.553Z,35.40
2019-04-01T03:12:15.029Z,32.30
2019-04-01T03:15:28.625Z,32.40
2019-04-01T03:18:42.100Z,35.80
2019-04-01T03:21:55.809Z,33.43
2019-04-01T03:25:09.589Z,37.30
2019-04-01T03:28:23.445Z,32.00
2019-04-01T03:31:37.026Z,34.47
2019-04-01T03:34:50.597Z,36.03
2019-04-01T03:38:04.193Z,36.07
2019-04-01T03:41:17.766Z,34.17
2019-04-01T03:44:31.343Z,31.67
2019-04-01T03:47:45.185Z,35.60
2019-04-01T03:50:58.684Z,34.47
2019-04-01T03:54:12.176Z,40.67
2019-04-01T03:57:25.650Z,42.83
2019-04-01T04:00:39.224Z,36.33
2019-04-01T04:03:52.801Z,33.37
2019-04-01T04:07:06.570Z,38.13
2019-04-01T04:10:20.167Z,37.27
2019-04-01T04:13:33.777Z,34.27
2019-04-01T04:16:47.518Z,32.97
2019-04-01T04:20:01.107Z,37.73
2019-04-01T04:23:14.568Z,34.90
2019-04-01T04:26:28.094Z,32.90
2019-04-01T04:29:41.559Z,35.33
2019-04-01T04:32:55.413Z,33.20
2019-04-01T04:36:08.888Z,31.83
2019-04-01T04:39:22.879Z,34.60
2019-04-01T04:42:36.353Z,31.37
2019-04-01T04:45:49.960Z,32.23
2019-04-01T04:49:03.504Z,31.40
2019-04-01T04:52:16.970Z,39.60
2019-04-01T04:55:30.447Z,31.53
2019-04-01T04:58:43.915Z,33.97
2019-04-01T05:01:57.521Z,32.27
2019-04-01T05:05:11.299Z,33.77
2019-04-01T05:08:25.059Z,33.47
2019-04-01T05:11:38.588Z,32.87
2019-04-01T05:14:52.437Z,34.70
2019-04-01T05:18:06.352Z,38.73
2019-04-01T05:21:20.544Z,39.93
2019-04-01T05:24:34.833Z,32.60
2019-04-01T05:27:48.712Z,34.23
2019-04-01T05:31:05.675Z,28.27
2019-04-01T05:34:20.950Z,29.40
2019-04-01T05:37:35.120Z,36.00
2019-04-01T05:40:48.800Z,31.70
2019-04-01T05:44:02.643Z,33.10
2019-04-01T05:47:18.359Z,30.87
2019-04-01T05:50:32.075Z,32.30
2019-04-01T05:53:45.770Z,29.83
2019-04-01T05:56:59.672Z,27.63
2019-04-01T06:00:21.001Z,27.53
2019-04-01T06:03:34.683Z,27.57
2019-04-01T06:06:49.098Z,27.67
2019-04-01T06:10:03.305Z,23.17
2019-04-01T06:13:17.163Z,26.50
2019-04-01T06:16:30.999Z,20.63
2019-04-01T06:19:44.980Z,21.90
2019-04-01T06:22:58.753Z,21.70
2019-04-01T06:26:12.344Z,22.70
2019-04-01T06:29:26.347Z,23.63
2019-04-01T06:32:39.920Z,21.53
2019-04-01T06:35:53.713Z,19.17
2019-04-01T06:39:07.529Z,22.33
2019-04-01T06:42:21.421Z,21.27
2019-04-01T06:45:35.261Z,20.33
2019-04-01T06:48:48.840Z,19.43
2019-04-01T06:52:02.918Z,20.33
2019-04-01T06:55:16.856Z,19.30
2019-04-01T06:58:30.655Z,19.40
2019-04-01T07:01:44.367Z,16.23
2019-04-01T07:04:58.113Z,19.53
2019-04-01T07:08:11.935Z,15.70
2019-04-01T07:11:25.601Z,16.73
2019-04-01T07:14:39.880Z,17.10
2019-04-01T07:17:53.861Z,18.27
2019-04-01T07:21:10.143Z,14.33
2019-04-01T07:24:23.720Z,16.47
2019-04-01T07:27:38.103Z,17.00
2019-04-01T07:30:51.793Z,16.20
2019-04-01T07:34:05.655Z,17.80
2019-04-01T07:37:19.244Z,17.43
2019-04-01T07:40:33.535Z,16.83
2019-04-01T07:43:47.512Z,15.33
2019-04-01T07:47:01.634Z,16.73
2019-04-01T07:50:15.285Z,19.87
2019-04-01T07:53:29.099Z,15.67
2019-04-01T07:56:42.578Z,17.10
2019-04-01T07:59:56.969Z,17.70
2019-04-01T08:03:10.976Z,18.03
2019-04-01T08:06:24.851Z,17.77
2019-04-01T08:09:39.024Z,19.43
2019-04-01T08:12:52.603Z,16.47
2019-04-01T08:16:06.280Z,19.30
2019-04-01T08:19:19.981Z,17.60
2019-04-01T08:22:33.659Z,20.93
2019-04-01T08:25:48.115Z,20.90
2019-04-01T08:29:01.895Z,19.90
2019-04-01T08:32:15.590Z,18.27
2019-04-01T08:35:29.503Z,18.73
2019-04-01T08:38:43.203Z,22.97
2019-04-01T08:41:56.804Z,22.93
2019-04-01T08:45:10.671Z,20.53
2019-04-01T08:48:25.035Z,21.63
2019-04-01T08:51:38.951Z,20.27
2019-04-01T08:54:52.545Z,20.80
2019-04-01T08:58:06.411Z,23.00
2019-04-01T09:01:34.161Z,20.37
2019-04-01T09:04:35.377Z,18.33
2019-04-01T09:07:49.456Z,21.70
2019-04-01T09:11:03.133Z,23.00
2019-04-01T09:14:17.223Z,21.13
2019-04-01T09:17:30.736Z,20.63
2019-04-01T09:20:44.311Z,18.70
2019-04-01T09:23:57.923Z,20.27
2019-04-01T09:27:11.703Z,23.60
2019-04-01T09:30:25.434Z,20.33
2019-04-01T09:33:39.333Z,21.17
2019-04-01T09:36:52.921Z,21.97
2019-04-01T09:40:07.026Z,19.40
2019-04-01T09:43:21.065Z,20.47
2019-04-01T09:46:34.739Z,22.47
2019-04-01T09:49:48.220Z,24.83
2019-04-01T09:53:01.806Z,21.73
2019-04-01T09:56:15.270Z,23.33
2019-04-01T09:59:28.752Z,23.67
2019-04-01T10:02:42.660Z,22.57
2019-04-01T10:05:56.496Z,21.27
2019-04-01T10:09:10.198Z,21.23
2019-04-01T10:12:23.895Z,24.03
2019-04-01T10:15:37.389Z,23.47
2019-04-01T10:18:50.979Z,19.77
2019-04-01T10:22:04.900Z,19.63
2019-04-01T10:25:18.488Z,20.17
2019-04-01T10:28:32.491Z,22.70
2019-04-01T10:31:46.476Z,22.13
2019-04-01T10:35:00.407Z,20.83
2019-04-01T10:38:14.284Z,20.23
2019-04-01T10:41:28.008Z,23.47
2019-04-01T10:44:41.847Z,20.23
2019-04-01T10:47:55.354Z,23.90
2019-04-01T10:51:09.095Z,21.63
2019-04-01T10:54:23.017Z,23.13
2019-04-01T10:57:36.825Z,23.87
2019-04-01T11:00:50.728Z,20.83
2019-04-01T11:04:06.200Z,21.87
2019-04-01T11:07:22.985Z,24.80
2019-04-01T11:10:37.726Z,23.73
2019-04-01T11:13:54.380Z,23.70
2019-04-01T11:17:10.561Z,22.53
2019-04-01T11:20:25.984Z,20.70
2019-04-01T11:23:39.666Z,22.93
2019-04-01T11:26:53.481Z,20.50
2019-04-01T11:30:08.482Z,21.93
2019-04-01T11:33:22.086Z,20.80
2019-04-01T11:36:35.764Z,21.10
2019-04-01T11:39:49.307Z,21.80
2019-04-01T11:43:04.922Z,20.00
2019-04-01T11:46:18.346Z,18.97
2019-04-01T11:49:32.087Z,19.20
2019-04-01T11:52:45.822Z,21.50
2019-04-01T11:55:59.535Z,22.10
2019-04-01T11:59:13.028Z,20.83
2019-04-01T12:02:26.609Z,20.47
2019-04-01T12:05:40.502Z,20.53
2019-04-01T12:08:53.998Z,19.70
2019-04-01T12:12:22.332Z,20.37
2019-04-01T12:15:23.094Z,20.47
2019-04-01T12:18:36.697Z,21.77
2019-04-01T12:21:50.300Z,18.73
2019-04-01T12:25:04.804Z,20.20
2019-04-01T12:28:18.900Z,20.13
2019-04-01T12:31:32.623Z,20.47
2019-04-01T12:34:46.809Z,20.77
2019-04-01T12:38:00.764Z,17.83
2019-04-01T12:41:15.113Z,20.17
2019-04-01T12:44:28.916Z,20.27
2019-04-01T12:47:43.402Z,19.67
2019-04-01T12:50:57.975Z,19.50
2019-04-01T12:54:12.063Z,21.13
2019-04-01T12:57:26.016Z,18.00
2019-04-01T13:00:39.526Z,21.30
2019-04-01T13:03:53.014Z,17.10
2019-04-01T13:07:06.618Z,17.97
2019-04-01T13:10:20.565Z,17.83
2019-04-01T13:13:34.096Z,17.60
2019-04-01T13:16:47.974Z,16.37
2019-04-01T13:20:01.667Z,18.40
2019-04-01T13:23:15.193Z,18.50
2019-04-01T13:26:28.732Z,19.07
2019-04-01T13:29:42.458Z,18.13
2019-04-01T13:32:56.125Z,16.77
2019-04-01T13:36:09.936Z,17.90
2019-04-01T13:39:23.925Z,18.47
2019-04-01T13:42:37.604Z,18.33
2019-04-01T13:45:51.270Z,18.07
2019-04-01T13:49:05.051Z,17.40
2019-04-01T13:52:19.139Z,18.70
2019-04-01T13:55:33.046Z,17.50
2019-04-01T13:58:46.880Z,16.20
2019-04-01T14:02:00.696Z,17.37
2019-04-01T14:05:14.639Z,17.67
2019-04-01T14:08:28.621Z,18.30
2019-04-01T14:11:42.669Z,18.27
2019-04-01T14:14:56.415Z,22.07
2019-04-01T14:18:10.020Z,17.80
2019-04-01T14:21:23.753Z,17.73
2019-04-01T14:24:37.525Z,18.37
2019-04-01T14:27:51.147Z,17.80
2019-04-01T14:31:05.234Z,16.10
2019-04-01T14:34:23.216Z,18.47
2019-04-01T14:37:35.147Z,16.60
2019-04-01T14:40:49.049Z,18.13
2019-04-01T14:44:03.000Z,19.83
2019-04-01T14:47:16.586Z,18.00
2019-04-01T14:50:30.457Z,17.80
2019-04-01T14:53:43.946Z,18.10
2019-04-01T14:56:57.555Z,17.30
2019-04-01T15:00:12.544Z,19.77
2019-04-01T15:03:26.029Z,18.30
2019-04-01T15:06:39.514Z,19.50
2019-04-01T15:09:53.102Z,18.10
2019-04-01T15:13:06.745Z,19.27
2019-04-01T15:16:20.342Z,17.60
2019-04-01T15:19:33.940Z,17.53
2019-04-01T15:22:47.456Z,15.70
2019-04-01T15:26:01.226Z,18.67
2019-04-01T15:29:15.254Z,16.43
2019-04-01T15:32:28.992Z,17.30
2019-04-01T15:35:42.726Z,17.07
2019-04-01T15:38:56.526Z,17.03
2019-04-01T15:42:10.299Z,18.53
2019-04-01T15:45:24.347Z,16.27
2019-04-01T15:48:38.070Z,21.23
2019-04-01T15:51:51.605Z,19.57
2019-04-01T15:55:05.351Z,17.93
2019-04-01T15:58:18.844Z,16.93
2019-04-01T16:01:32.464Z,18.60
2019-04-01T16:04:46.511Z,18.10
2019-04-01T16:08:00.275Z,16.70
2019-04-01T16:11:13.912Z,17.33
2019-04-01T16:14:27.808Z,16.77
2019-04-01T16:17:41.520Z,18.00
2019-04-01T16:20:55.543Z,18.03
2019-04-01T16:24:11.274Z,16.57
2019-04-01T16:27:24.907Z,15.80
2019-04-01T16:30:38.538Z,18.13
2019-04-01T16:33:52.560Z,17.13
2019-04-01T16:37:06.247Z,16.60
2019-04-01T16:40:20.234Z,16.10
2019-04-01T16:43:33.979Z,16.87
2019-04-01T16:46:47.718Z,17.40
2019-04-01T16:50:01.674Z,18.27
2019-04-01T16:53:15.415Z,17.20
2019-04-01T16:56:29.189Z,16.43
2019-04-01T16:59:42.819Z,19.17
2019-04-01T17:02:57.021Z,20.00
2019-04-01T17:06:10.816Z,18.03
2019-04-01T17:09:24.335Z,18.37
2019-04-01T17:12:37.944Z,17.10
2019-04-01T17:15:51.539Z,17.50
2019-04-01T17:19:05.178Z,16.43
2019-04-01T17:22:19.209Z,15.67
2019-04-01T17:25:32.977Z,17.30
2019-04-01T17:28:47.020Z,14.93
2019-04-01T17:32:00.624Z,17.23
2019-04-01T17:35:14.529Z,16.50
2019-04-01T17:38:28.276Z,16.30
2019-04-01T17:41:46.114Z,15.30
2019-04-01T17:45:02.700Z,22.23
2019-04-01T17:48:16.712Z,21.33
2019-04-01T17:51:31.047Z,15.23
2019-04-01T17:54:44.630Z,20.67
2019-04-01T17:57:58.335Z,20.90
2019-04-01T18:01:12.168Z,16.07
2019-04-01T18:04:26.036Z,18.97
2019-04-01T18:07:39.535Z,14.37
2019-04-01T18:10:53.125Z,15.50
2019-04-01T18:14:06.613Z,14.87
2019-04-01T18:17:20.481Z,11.47
2019-04-01T18:20:34.453Z,15.03
2019-04-01T18:23:48.039Z,17.90
2019-04-01T18:27:01.523Z,17.00
2019-04-01T18:30:15.840Z,16.73
2019-04-01T18:33:30.298Z,16.73
2019-04-01T18:36:44.142Z,15.30
2019-04-01T18:39:57.614Z,14.43
2019-04-01T18:43:11.123Z,19.83
2019-04-01T18:46:24.616Z,16.67
2019-04-01T18:49:38.085Z,19.63
2019-04-01T18:52:51.570Z,18.13
2019-04-01T18:56:05.472Z,31.57
2019-04-01T18:59:19.044Z,25.37
2019-04-01T19:02:32.539Z,46.53
2019-04-01T19:05:47.075Z,38.13
2019-04-01T19:09:09.205Z,43.67
2019-04-01T19:12:16.461Z,58.50
2019-04-01T19:15:31.180Z,40.00
2019-04-01T19:18:44.974Z,20.47
2019-04-01T19:21:58.769Z,20.30
2019-04-01T19:25:12.474Z,29.77
2019-04-01T19:28:26.231Z,26.50
2019-04-01T19:31:41.170Z,22.80
2019-04-01T19:34:55.005Z,27.93
2019-04-01T19:38:08.609Z,31.63
2019-04-01T19:41:22.109Z,43.30
2019-04-01T19:44:35.681Z,25.10
2019-04-01T19:47:49.164Z,19.33
2019-04-01T19:51:02.951Z,27.17
2019-04-01T19:54:16.426Z,22.60
2019-04-01T19:57:30.028Z,28.80
2019-04-01T20:00:43.519Z,19.00
2019-04-01T20:03:57.079Z,17.43
2019-04-01T20:07:10.784Z,41.27
2019-04-01T20:13:54.737Z,31.70
2019-04-01T20:17:07.192Z,37.07
2019-04-01T20:20:20.762Z,22.77
2019-04-01T20:23:34.240Z,34.37
2019-04-01T20:26:47.758Z,27.27
2019-04-01T20:30:01.396Z,30.63
2019-04-01T20:33:18.087Z,30.63
2019-04-01T20:36:31.416Z,31.50
2019-04-01T20:39:45.455Z,33.57
2019-04-01T20:42:59.451Z,52.67
2019-04-01T20:46:13.343Z,31.10
2019-04-01T20:49:26.829Z,33.20
2019-04-01T20:52:40.804Z,32.20
2019-04-01T20:55:54.311Z,22.53
2019-04-01T20:59:07.808Z,23.17
2019-04-01T21:02:21.520Z,20.93
2019-04-01T21:05:35.007Z,23.43
2019-04-01T21:08:48.491Z,21.93
2019-04-01T21:12:03.135Z,24.17
2019-04-01T21:15:16.880Z,23.20
2019-04-01T21:18:30.387Z,23.10
2019-04-01T21:21:43.884Z,20.50
2019-04-01T21:24:57.360Z,22.20
2019-04-01T21:28:10.839Z,23.30
2019-04-01T21:31:24.575Z,27.33
2019-04-01T21:34:38.066Z,27.10
2019-04-01T21:37:51.597Z,24.10
2019-04-01T21:41:05.183Z,22.50
2019-04-01T21:44:18.680Z,24.63
2019-04-01T21:47:32.557Z,22.70
2019-04-01T21:50:46.390Z,20.47
2019-04-01T21:54:00.301Z,21.27
2019-04-01T21:57:13.973Z,24.87
2019-04-01T22:00:38.726Z,21.07
2019-04-01T22:03:52.216Z,23.87
2019-04-01T22:07:05.695Z,24.83
2019-04-01T22:10:19.182Z,23.17
2019-04-01T22:13:32.936Z,25.00
2019-04-01T22:16:48.032Z,27.97
2019-04-01T22:20:02.315Z,29.43
2019-04-01T22:23:16.249Z,22.80
2019-04-01T22:26:29.832Z,21.07
2019-04-01T22:29:43.423Z,21.43
2019-04-01T22:32:57.260Z,35.40
2019-04-01T22:36:11.419Z,32.90
2019-04-01T22:39:27.194Z,22.27
2019-04-01T22:42:41.215Z,23.80
2019-04-01T22:45:54.975Z,19.00
2019-04-01T22:49:08.456Z,23.97
2019-04-01T22:52:21.944Z,22.33
2019-04-01T22:55:35.541Z,25.63
2019-04-01T22:58:49.023Z,25.40
2019-04-01T23:02:02.605Z,25.00
2019-04-01T23:05:16.434Z,22.37
2019-04-01T23:08:31.057Z,27.23
2019-04-01T23:11:44.718Z,29.17
2019-04-01T23:14:58.206Z,33.03
2019-04-01T23:18:11.706Z,26.07
2019-04-01T23:21:25.584Z,26.33
2019-04-01T23:24:39.072Z,25.37
2019-04-01T23:27:52.556Z,27.47
2019-04-01T23:31:06.043Z,22.87
2019-04-01T23:34:19.535Z,26.20
2019-04-01T23:37:33.114Z,23.07
2019-04-01T23:40:46.607Z,21.97
2019-04-01T23:44:00.103Z,22.93
2019-04-01T23:47:13.674Z,21.73
2019-04-01T23:50:27.159Z,21.67
2019-04-01T23:53:40.626Z,22.10
2019-04-01T23:56:54.215Z,23.73
